createdAt,value
2018-03-24T00:01:35.508Z,78.80
2018-03-24T00:04:06.214Z,79.00
2018-03-24T00:06:37.202Z,78.80
2018-03-24T00:09:09.016Z,78.90
2018-03-24T00:11:39.757Z,79.00
2018-03-24T00:14:10.302Z,79.10
2018-03-24T00:16:41.027Z,79.20
2018-03-24T00:19:11.917Z,79.20
2018-03-24T00:21:42.687Z,79.30
2018-03-24T00:24:13.480Z,79.30
2018-03-24T00:26:44.186Z,79.30
2018-03-24T00:29:14.880Z,79.10
2018-03-24T00:31:45.725Z,79.30
2018-03-24T00:34:16.530Z,79.20
2018-03-24T00:36:47.453Z,79.30
2018-03-24T00:39:18.350Z,79.00
2018-03-24T00:41:49.602Z,79.20
2018-03-24T00:44:20.458Z,79.10
2018-03-24T00:46:51.183Z,79.00
2018-03-24T00:49:21.387Z,79.00
2018-03-24T00:51:52.110Z,78.90
2018-03-24T00:54:23.034Z,79.70
2018-03-24T00:56:54.150Z,79.00
2018-03-24T00:59:24.838Z,79.10
2018-03-24T01:01:56.021Z,79.20
2018-03-24T01:04:26.382Z,79.50
2018-03-24T01:07:04.464Z,79.60
2018-03-24T01:09:35.550Z,79.70
2018-03-24T01:12:06.632Z,79.80
2018-03-24T01:14:37.418Z,79.80
2018-03-24T01:17:08.336Z,79.80
2018-03-24T01:19:39.218Z,79.70
2018-03-24T01:22:09.941Z,79.90
2018-03-24T01:24:40.957Z,79.90
2018-03-24T01:27:11.905Z,80.10
2018-03-24T01:29:42.847Z,80.00
2018-03-24T01:32:13.813Z,80.10
2018-03-24T01:34:44.794Z,80.10
2018-03-24T01:37:16.114Z,80.00
2018-03-24T01:39:47.236Z,80.10
2018-03-24T01:42:18.596Z,80.60
2018-03-24T01:44:49.629Z,80.00
2018-03-24T01:47:20.963Z,79.90
2018-03-24T01:49:52.843Z,80.00
2018-03-24T01:52:23.799Z,80.00
2018-03-24T01:54:54.387Z,79.90
2018-03-24T01:57:25.356Z,80.00
2018-03-24T01:59:56.242Z,80.20
2018-03-24T02:02:27.544Z,80.30
2018-03-24T02:04:58.291Z,80.30
2018-03-24T02:07:29.609Z,80.30
2018-03-24T02:10:01.490Z,80.40
2018-03-24T02:12:32.735Z,80.50
2018-03-24T02:15:03.664Z,80.40
2018-03-24T02:17:34.821Z,80.50
2018-03-24T02:20:06.183Z,80.50
2018-03-24T02:22:36.821Z,80.50
2018-03-24T02:25:08.037Z,80.50
2018-03-24T02:27:39.187Z,80.70
2018-03-24T02:30:11.614Z,80.70
2018-03-24T02:32:44.185Z,80.60
2018-03-24T02:35:15.213Z,80.50
2018-03-24T02:37:46.703Z,80.80
2018-03-24T02:40:19.497Z,80.80
2018-03-24T02:42:50.841Z,80.80
2018-03-24T02:45:21.740Z,80.80
2018-03-24T02:47:53.031Z,81.00
2018-03-24T02:50:24.449Z,80.00
2018-03-24T02:52:55.947Z,81.10
2018-03-24T02:55:27.049Z,81.10
2018-03-24T02:57:58.110Z,81.10
2018-03-24T03:00:29.544Z,81.20
2018-03-24T03:03:00.730Z,81.10
2018-03-24T03:05:32.303Z,81.10
2018-03-24T03:08:03.690Z,81.20
2018-03-24T03:10:34.879Z,81.10
2018-03-24T03:13:06.654Z,81.00
2018-03-24T03:15:37.746Z,81.10
2018-03-24T03:18:09.758Z,81.10
2018-03-24T03:20:41.013Z,81.10
2018-03-24T03:23:12.599Z,81.10
2018-03-24T03:25:44.087Z,81.30
2018-03-24T03:28:15.566Z,81.30
2018-03-24T03:30:47.002Z,81.30
2018-03-24T03:33:18.696Z,81.40
2018-03-24T03:35:50.355Z,81.50
2018-03-24T03:38:22.064Z,81.50
2018-03-24T03:40:53.338Z,81.80
2018-03-24T03:43:24.769Z,81.90
2018-03-24T03:45:56.306Z,82.10
2018-03-24T03:48:27.874Z,82.10
2018-03-24T03:50:59.504Z,82.20
2018-03-24T03:53:30.910Z,82.50
2018-03-24T03:56:02.446Z,82.50
2018-03-24T03:58:33.884Z,82.70
2018-03-24T04:01:05.171Z,82.80
2018-03-24T04:03:36.698Z,82.90
2018-03-24T04:06:07.814Z,82.60
2018-03-24T04:08:38.934Z,82.60
2018-03-24T04:11:10.399Z,82.60
2018-03-24T04:13:41.439Z,82.50
2018-03-24T04:16:12.015Z,82.40
2018-03-24T04:18:43.418Z,82.30
2018-03-24T04:21:14.180Z,82.30
2018-03-24T04:23:45.184Z,82.40
2018-03-24T04:26:16.042Z,82.20
2018-03-24T04:28:48.525Z,82.10
2018-03-24T04:31:20.604Z,82.20
2018-03-24T04:33:51.983Z,82.30
2018-03-24T04:36:22.720Z,82.40
2018-03-24T04:38:53.935Z,82.40
2018-03-24T04:41:24.598Z,82.60
2018-03-24T04:43:55.180Z,83.20
2018-03-24T04:46:25.994Z,83.50
2018-03-24T04:48:57.209Z,83.80
2018-03-24T04:51:28.570Z,83.90
2018-03-24T04:53:59.669Z,84.20
2018-03-24T04:56:30.688Z,84.40
2018-03-24T04:59:01.512Z,84.50
2018-03-24T05:01:32.841Z,84.70
2018-03-24T05:04:06.506Z,85.00
2018-03-24T05:06:38.076Z,85.20
2018-03-24T05:09:09.629Z,85.50
2018-03-24T05:11:40.559Z,85.60
2018-03-24T05:14:12.037Z,85.60
2018-03-24T05:16:42.827Z,85.60
2018-03-24T05:19:14.039Z,85.50
2018-03-24T05:21:44.983Z,85.40
2018-03-24T05:24:16.348Z,85.30
2018-03-24T05:26:47.825Z,85.30
2018-03-24T05:29:19.139Z,85.20
2018-03-24T05:31:50.281Z,85.20
2018-03-24T05:34:21.407Z,85.10
2018-03-24T05:36:53.129Z,85.70
2018-03-24T05:39:24.911Z,85.00
2018-03-24T05:41:56.314Z,85.00
2018-03-24T05:44:28.006Z,84.90
2018-03-24T05:46:59.026Z,84.80
2018-03-24T05:49:30.817Z,84.70
2018-03-24T05:52:01.649Z,84.60
2018-03-24T05:54:33.089Z,84.50
2018-03-24T05:57:04.900Z,84.50
2018-03-24T05:59:36.530Z,84.30
2018-03-24T06:02:07.536Z,84.20
2018-03-24T06:04:38.987Z,84.30
2018-03-24T06:07:10.388Z,84.00
2018-03-24T06:09:42.011Z,83.70
2018-03-24T06:12:13.112Z,82.60
2018-03-24T06:14:44.540Z,83.30
2018-03-24T06:17:15.555Z,83.00
2018-03-24T06:19:46.683Z,82.60
2018-03-24T06:22:17.978Z,81.60
2018-03-24T06:24:49.328Z,81.10
2018-03-24T06:27:20.268Z,81.30
2018-03-24T06:29:51.415Z,81.50
2018-03-24T06:32:22.682Z,80.10
2018-03-24T06:34:54.017Z,78.90
2018-03-24T06:37:24.812Z,77.70
2018-03-24T06:39:55.788Z,75.70
2018-03-24T06:42:26.121Z,73.90
2018-03-24T06:44:56.553Z,74.40
2018-03-24T06:47:27.665Z,65.30
2018-03-24T06:49:57.822Z,65.40
2018-03-24T06:52:28.762Z,60.30
2018-03-24T06:54:59.996Z,57.50
2018-03-24T06:57:30.973Z,55.60
2018-03-24T07:00:01.990Z,52.40
2018-03-24T07:02:32.974Z,52.70
2018-03-24T07:05:03.233Z,52.70
2018-03-24T07:07:34.066Z,50.00
2018-03-24T07:10:04.360Z,50.00
2018-03-24T07:12:34.465Z,50.00
2018-03-24T07:15:04.750Z,48.10
2018-03-24T07:17:34.893Z,46.20
2018-03-24T07:20:05.541Z,45.60
2018-03-24T07:22:36.328Z,45.10
2018-03-24T07:25:06.478Z,45.00
2018-03-24T07:27:36.475Z,46.20
2018-03-24T07:30:06.504Z,44.50
2018-03-24T07:32:37.281Z,44.80
2018-03-24T07:35:07.715Z,44.80
2018-03-24T07:37:37.761Z,44.30
2018-03-24T07:40:09.723Z,44.80
2018-03-24T07:42:40.912Z,46.20
2018-03-24T07:45:12.993Z,47.90
2018-03-24T07:47:43.388Z,48.80
2018-03-24T07:50:20.610Z,48.40
2018-03-24T07:52:51.099Z,47.30
2018-03-24T07:55:21.500Z,46.30
2018-03-24T07:57:51.440Z,45.30
2018-03-24T08:00:22.117Z,46.70
2018-03-24T08:02:52.776Z,46.10
2018-03-24T08:05:22.638Z,47.40
2018-03-24T08:07:52.419Z,47.30
2018-03-24T08:10:25.764Z,48.10
2018-03-24T08:12:57.860Z,48.10
2018-03-24T08:15:28.205Z,48.40
2018-03-24T08:17:58.000Z,47.70
2018-03-24T08:20:28.554Z,44.50
2018-03-24T08:22:58.169Z,44.40
2018-03-24T08:25:27.890Z,42.00
2018-03-24T08:27:57.507Z,41.60
2018-03-24T08:30:27.122Z,41.00
2018-03-24T08:32:57.550Z,40.00
2018-03-24T08:35:27.061Z,40.00
2018-03-24T08:37:57.544Z,39.60
2018-03-24T08:40:27.360Z,39.60
2018-03-24T08:42:57.169Z,37.70
2018-03-24T08:45:26.782Z,37.00
2018-03-24T08:47:56.674Z,36.60
2018-03-24T08:50:26.525Z,36.30
2018-03-24T08:52:56.243Z,35.10
2018-03-24T08:55:26.615Z,36.00
2018-03-24T08:57:57.197Z,35.00
2018-03-24T09:00:27.931Z,35.00
2018-03-24T09:02:57.739Z,34.70
2018-03-24T09:05:27.423Z,34.70
2018-03-24T09:07:57.899Z,34.90
2018-03-24T09:10:32.488Z,34.80
2018-03-24T09:13:03.211Z,34.70
2018-03-24T09:15:33.859Z,34.00
2018-03-24T09:18:03.415Z,34.00
2018-03-24T09:20:33.731Z,34.00
2018-03-24T09:23:03.228Z,34.00
2018-03-24T09:25:32.850Z,33.20
2018-03-24T09:28:03.492Z,32.10
2018-03-24T09:30:33.445Z,32.10
2018-03-24T09:33:03.226Z,31.90
2018-03-24T09:35:32.754Z,31.10
2018-03-24T09:38:03.295Z,31.00
2018-03-24T09:40:32.953Z,31.00
2018-03-24T09:43:02.644Z,31.70
2018-03-24T09:45:32.448Z,30.90
2018-03-24T09:48:02.239Z,31.00
2018-03-24T09:50:31.973Z,30.00
2018-03-24T09:53:01.612Z,30.20
2018-03-24T09:55:32.134Z,29.80
2018-03-24T09:58:01.782Z,29.70
2018-03-24T10:00:31.300Z,29.10
2018-03-24T10:03:01.735Z,28.50
2018-03-24T10:05:35.540Z,27.70
2018-03-24T10:08:05.301Z,27.70
2018-03-24T10:10:35.520Z,28.60
2018-03-24T10:13:05.305Z,28.40
2018-03-24T10:15:34.936Z,29.10
2018-03-24T10:18:04.650Z,28.80
2018-03-24T10:20:39.459Z,28.80
2018-03-24T10:23:09.482Z,28.80
2018-03-24T10:25:40.731Z,28.90
2018-03-24T10:28:11.970Z,29.30
2018-03-24T10:30:41.967Z,28.50
2018-03-24T10:33:12.430Z,27.80
2018-03-24T10:35:43.517Z,28.20
2018-03-24T10:38:14.155Z,27.20
2018-03-24T10:40:46.650Z,27.10
2018-03-24T10:43:20.644Z,26.50
2018-03-24T10:45:51.105Z,26.60
2018-03-24T10:48:21.239Z,27.70
2018-03-24T10:50:51.355Z,27.80
2018-03-24T10:53:21.847Z,27.20
2018-03-24T10:55:52.909Z,26.90
2018-03-24T10:58:23.500Z,27.30
2018-03-24T11:00:57.319Z,26.80
2018-03-24T11:03:27.771Z,28.10
2018-03-24T11:05:57.519Z,27.60
2018-03-24T11:08:27.707Z,27.50
2018-03-24T11:10:58.395Z,28.70
2018-03-24T11:13:28.620Z,28.00
2018-03-24T11:15:58.340Z,28.60
2018-03-24T11:18:28.874Z,28.90
2018-03-24T11:20:58.930Z,29.40
2018-03-24T11:23:29.462Z,27.60
2018-03-24T11:25:59.989Z,27.90
2018-03-24T11:28:30.247Z,27.60
2018-03-24T11:31:02.046Z,27.70
2018-03-24T11:33:33.710Z,28.30
2018-03-24T11:36:04.452Z,28.10
2018-03-24T11:38:35.071Z,29.30
2018-03-24T11:41:09.508Z,30.00
2018-03-24T11:43:40.201Z,30.90
2018-03-24T11:46:12.950Z,31.20
2018-03-24T11:48:43.733Z,29.60
2018-03-24T11:51:14.470Z,30.00
2018-03-24T11:53:48.029Z,28.70
2018-03-24T11:56:19.969Z,28.00
2018-03-24T11:58:49.770Z,28.50
2018-03-24T12:01:19.378Z,29.10
2018-03-24T12:03:50.450Z,30.50
2018-03-24T12:06:20.872Z,30.90
2018-03-24T12:08:51.395Z,32.50
2018-03-24T12:11:23.936Z,32.60
2018-03-24T12:13:54.389Z,31.80
2018-03-24T12:16:24.833Z,32.80
2018-03-24T12:18:54.962Z,31.70
2018-03-24T12:21:30.519Z,32.60
2018-03-24T12:24:01.714Z,32.90
2018-03-24T12:26:32.230Z,32.50
2018-03-24T12:29:06.528Z,31.60
2018-03-24T12:31:38.410Z,31.30
2018-03-24T12:34:10.073Z,29.10
2018-03-24T12:36:41.231Z,29.40
2018-03-24T12:39:10.844Z,29.10
2018-03-24T12:41:40.418Z,28.90
2018-03-24T12:44:12.476Z,28.10
2018-03-24T12:46:43.138Z,28.00
2018-03-24T12:49:14.026Z,27.40
2018-03-24T12:51:44.708Z,27.10
2018-03-24T12:54:16.265Z,27.10
2018-03-24T12:56:46.075Z,28.20
2018-03-24T12:59:15.785Z,27.60
2018-03-24T13:01:45.583Z,27.40
2018-03-24T13:04:16.441Z,27.10
2018-03-24T13:06:45.990Z,27.10
2018-03-24T13:09:15.666Z,27.10
2018-03-24T13:11:47.564Z,27.40
2018-03-24T13:14:17.831Z,27.30
2018-03-24T13:18:53.053Z,26.30
2018-03-24T13:21:23.296Z,26.90
2018-03-24T13:23:53.661Z,26.10
2018-03-24T13:26:23.975Z,27.00
2018-03-24T13:28:54.531Z,26.40
2018-03-24T13:31:24.928Z,26.50
2018-03-24T13:33:55.408Z,26.40
2018-03-24T13:36:25.952Z,25.50
2018-03-24T13:39:01.531Z,25.90
2018-03-24T13:41:32.203Z,25.90
2018-03-24T13:45:23.334Z,26.90
2018-03-24T13:47:53.813Z,26.30
2018-03-24T13:50:24.557Z,26.60
2018-03-24T13:52:55.080Z,26.90
2018-03-24T13:55:25.356Z,27.00
2018-03-24T13:57:55.801Z,27.60
2018-03-24T14:00:28.184Z,27.40
2018-03-24T14:02:58.667Z,27.10
2018-03-24T14:05:29.091Z,27.50
2018-03-24T14:07:59.404Z,27.80
2018-03-24T14:10:29.773Z,27.60
2018-03-24T14:13:00.786Z,27.60
2018-03-24T14:15:31.352Z,27.60
2018-03-24T14:18:01.800Z,28.10
2018-03-24T14:20:32.259Z,27.80
2018-03-24T14:23:02.653Z,27.70
2018-03-24T14:25:33.113Z,27.80
2018-03-24T14:28:08.234Z,28.40
2018-03-24T14:30:39.262Z,28.80
2018-03-24T14:33:11.343Z,29.80
2018-03-24T14:35:42.588Z,30.00
2018-03-24T14:41:01.218Z,31.10
2018-03-24T14:43:31.870Z,31.30
2018-03-24T14:46:02.078Z,30.90
2018-03-24T14:48:44.523Z,30.70
2018-03-24T14:51:15.812Z,30.60
2018-03-24T14:53:46.898Z,31.90
2018-03-24T14:56:23.146Z,31.40
2018-03-24T14:58:53.613Z,30.00
2018-03-24T15:01:24.628Z,32.20
2018-03-24T15:03:55.588Z,33.40
2018-03-24T15:06:33.596Z,33.40
2018-03-24T15:09:06.373Z,33.80
2018-03-24T15:11:37.108Z,34.40
2018-03-24T15:14:08.247Z,34.50
2018-03-24T15:16:40.506Z,34.60
2018-03-24T15:19:12.339Z,35.40
2018-03-24T15:21:43.430Z,34.90
2018-03-24T15:24:14.431Z,34.30
2018-03-24T15:26:45.559Z,35.20
2018-03-24T15:31:34.154Z,35.10
2018-03-24T15:38:24.994Z,36.00
2018-03-24T15:40:55.974Z,35.60
2018-03-24T15:43:31.286Z,35.80
2018-03-24T15:46:03.615Z,35.40
2018-03-24T15:48:36.720Z,35.30
2018-03-24T15:51:07.917Z,35.60
2018-03-24T15:53:38.666Z,35.80
2018-03-24T15:56:09.437Z,36.00
2018-03-24T15:58:55.672Z,36.30
2018-03-24T16:01:34.408Z,35.80
2018-03-24T16:04:05.220Z,35.90
2018-03-24T16:06:40.433Z,36.10
2018-03-24T16:09:14.193Z,36.40
2018-03-24T16:11:47.044Z,36.40
2018-03-24T16:14:17.886Z,36.40
2018-03-24T16:16:48.819Z,37.00
2018-03-24T16:19:19.691Z,37.10
2018-03-24T16:21:50.421Z,36.70
2018-03-24T16:24:21.283Z,36.80
2018-03-24T16:26:52.386Z,37.00
2018-03-24T16:29:24.542Z,37.20
2018-03-24T16:31:56.715Z,37.40
2018-03-24T16:34:27.717Z,37.20
2018-03-24T16:37:00.724Z,38.90
2018-03-24T16:39:32.382Z,37.50
2018-03-24T16:42:03.857Z,38.60
2018-03-24T16:44:35.740Z,37.80
2018-03-24T16:47:06.501Z,38.10
2018-03-24T16:49:42.441Z,38.40
2018-03-24T16:52:13.342Z,38.50
2018-03-24T16:54:43.922Z,38.50
2018-03-24T16:57:14.488Z,38.50
2018-03-24T16:59:45.992Z,38.70
2018-03-24T17:02:16.545Z,39.20
2018-03-24T17:04:47.120Z,39.10
2018-03-24T17:07:17.733Z,38.50
2018-03-24T17:09:49.310Z,39.10
2018-03-24T17:12:19.790Z,39.50
2018-03-24T17:14:50.267Z,39.70
2018-03-24T17:17:20.785Z,39.70
2018-03-24T17:19:51.506Z,42.50
2018-03-24T17:22:23.973Z,40.00
2018-03-24T17:24:54.812Z,40.10
2018-03-24T17:27:25.795Z,40.40
2018-03-24T17:29:56.486Z,40.80
2018-03-24T17:32:30.203Z,40.70
2018-03-24T17:35:06.541Z,41.10
2018-03-24T17:37:37.229Z,41.00
2018-03-24T17:40:08.152Z,41.20
2018-03-24T17:42:39.301Z,41.40
2018-03-24T17:45:10.023Z,43.00
2018-03-24T17:47:40.731Z,42.90
2018-03-24T17:50:11.654Z,43.10
2018-03-24T17:52:48.106Z,43.40
2018-03-24T17:55:21.412Z,43.60
2018-03-24T17:57:52.219Z,44.00
2018-03-24T18:00:37.481Z,44.30
2018-03-24T18:03:08.964Z,44.90
2018-03-24T18:05:39.562Z,45.30
2018-03-24T18:08:10.254Z,45.50
2018-03-24T18:10:48.839Z,45.90
2018-03-24T18:13:20.676Z,46.10
2018-03-24T18:15:52.044Z,46.50
2018-03-24T18:18:22.808Z,47.20
2018-03-24T18:20:53.851Z,47.70
2018-03-24T18:23:26.637Z,48.10
2018-03-24T18:25:57.229Z,48.80
2018-03-24T18:28:33.450Z,49.10
2018-03-24T18:31:04.253Z,49.90
2018-03-24T18:33:34.760Z,49.30
2018-03-24T18:36:05.250Z,51.00
2018-03-24T18:38:35.738Z,51.30
2018-03-24T18:41:16.126Z,51.70
2018-03-24T18:43:46.491Z,52.00
2018-03-24T18:46:16.910Z,51.20
2018-03-24T18:48:47.441Z,52.70
2018-03-24T18:51:24.995Z,52.90
2018-03-24T18:53:55.373Z,53.20
2018-03-24T18:56:26.089Z,54.50
2018-03-24T19:01:50.700Z,54.00
2018-03-24T19:04:21.236Z,54.10
2018-03-24T19:06:51.936Z,54.20
2018-03-24T19:09:22.389Z,54.70
2018-03-24T19:11:53.703Z,54.80
2018-03-24T19:14:24.116Z,55.00
2018-03-24T19:16:54.495Z,55.10
2018-03-24T19:19:27.027Z,55.00
2018-03-24T19:21:57.807Z,55.20
2018-03-24T19:24:28.365Z,55.30
2018-03-24T19:26:58.812Z,55.10
2018-03-24T19:29:29.185Z,55.60
2018-03-24T19:31:59.945Z,55.50
2018-03-24T19:34:31.792Z,55.60
2018-03-24T19:37:02.559Z,55.90
2018-03-24T19:39:33.261Z,56.20
2018-03-24T19:42:08.678Z,56.20
2018-03-24T19:44:39.629Z,54.20
2018-03-24T19:47:10.700Z,58.00
2018-03-24T19:49:41.930Z,56.60
2018-03-24T19:52:12.659Z,56.80
2018-03-24T19:54:44.078Z,59.00
2018-03-24T19:57:14.529Z,57.10
2018-03-24T19:59:44.927Z,57.20
2018-03-24T20:02:16.116Z,57.40
2018-03-24T20:04:47.481Z,57.30
2018-03-24T20:07:18.316Z,57.40
2018-03-24T20:09:49.223Z,57.80
2018-03-24T20:12:19.882Z,57.70
2018-03-24T20:14:54.771Z,59.30
2018-03-24T20:17:26.335Z,58.20
2018-03-24T20:19:57.267Z,58.40
2018-03-24T20:22:28.332Z,58.40
2018-03-24T20:24:59.291Z,58.20
2018-03-24T20:27:30.455Z,58.40
2018-03-24T20:30:02.268Z,58.30
2018-03-24T20:32:34.033Z,58.40
2018-03-24T20:35:04.702Z,58.40
2018-03-24T20:37:35.175Z,58.40
2018-03-24T20:40:05.716Z,58.60
2018-03-24T20:42:39.675Z,58.90
2018-03-24T20:45:10.772Z,58.90
2018-03-24T20:47:41.293Z,59.00
2018-03-24T20:50:11.838Z,59.10
2018-03-24T20:52:44.168Z,59.10
2018-03-24T20:55:16.519Z,59.20
2018-03-24T20:57:47.311Z,59.40
2018-03-24T21:00:17.909Z,59.10
2018-03-24T21:02:49.114Z,59.50
2018-03-24T21:05:19.901Z,59.40
2018-03-24T21:07:50.376Z,59.60
2018-03-24T21:10:21.001Z,59.70
2018-03-24T21:12:51.618Z,59.70
2018-03-24T21:15:22.740Z,59.80
2018-03-24T21:17:53.479Z,59.90
2018-03-24T21:20:24.103Z,59.90
2018-03-24T21:22:54.660Z,60.00
2018-03-24T21:25:25.392Z,60.30
2018-03-24T21:27:55.949Z,60.40
2018-03-24T21:30:27.689Z,60.50
2018-03-24T21:32:59.812Z,60.80
2018-03-24T21:35:32.407Z,60.80
2018-03-24T21:38:03.404Z,60.90
2018-03-24T21:40:35.436Z,61.20
2018-03-24T21:43:06.622Z,61.20
2018-03-24T21:45:37.519Z,61.50
2018-03-24T21:48:08.536Z,61.60
2018-03-24T21:50:40.056Z,61.90
2018-03-24T21:53:11.778Z,62.30
2018-03-24T21:55:43.232Z,62.40
2018-03-24T21:58:14.387Z,62.50
2018-03-24T22:00:45.600Z,62.50
2018-03-24T22:03:17.458Z,62.60
2018-03-24T22:05:48.851Z,62.70
2018-03-24T22:08:20.938Z,63.00
2018-03-24T22:10:52.624Z,63.20
2018-03-24T22:13:23.696Z,63.30
2018-03-24T22:15:55.056Z,63.40
2018-03-24T22:18:27.654Z,63.40
2018-03-24T22:20:59.249Z,63.70
2018-03-24T22:23:31.273Z,63.90
2018-03-24T22:26:05.774Z,64.00
2018-03-24T22:28:44.174Z,64.10
2018-03-24T22:31:16.048Z,64.30
2018-03-24T22:33:51.438Z,64.30
2018-03-24T22:36:23.845Z,64.50
2018-03-24T22:38:55.614Z,64.50
2018-03-24T22:41:27.139Z,64.60
2018-03-24T22:43:58.345Z,64.80
2018-03-24T22:46:29.745Z,64.90
2018-03-24T22:49:00.676Z,65.10
2018-03-24T22:51:32.329Z,65.20
2018-03-24T22:54:03.820Z,65.40
2018-03-24T22:56:36.159Z,65.40
2018-03-24T22:59:07.491Z,65.50
2018-03-24T23:01:38.871Z,65.70
2018-03-24T23:04:09.910Z,65.90
2018-03-24T23:06:40.482Z,66.00
2018-03-24T23:09:11.006Z,66.10
2018-03-24T23:11:48.634Z,67.60
2018-03-24T23:14:19.240Z,66.40
2018-03-24T23:16:49.710Z,66.60
2018-03-24T23:19:20.289Z,66.60
2018-03-24T23:21:55.710Z,66.60
2018-03-24T23:24:27.309Z,66.50
2018-03-24T23:26:58.397Z,66.50
2018-03-24T23:29:28.997Z,66.80
2018-03-24T23:31:59.452Z,66.80
2018-03-24T23:34:30.463Z,67.10
2018-03-24T23:37:00.937Z,67.30
2018-03-24T23:39:31.827Z,67.30
2018-03-24T23:42:02.474Z,67.50
2018-03-24T23:44:33.535Z,67.70
2018-03-24T23:47:04.363Z,67.60
2018-03-24T23:49:35.558Z,67.90
2018-03-24T23:52:12.905Z,67.90
2018-03-24T23:54:44.224Z,68.40
2018-03-24T23:57:14.914Z,68.90
2018-03-24T23:59:47.214Z,68.90
